createdAt,value
2023-01-01T00:00:21.200Z,80.32
2023-01-01T00:02:48.747Z,80.21
2023-01-01T00:05:16.393Z,79.67
2023-01-01T00:07:44.116Z,79.15
2023-01-01T00:10:30.270Z,79.17
2023-01-01T00:12:59.890Z,78.37
2023-01-01T00:15:28.606Z,78.11
2023-01-01T00:17:56.233Z,77.67
2023-01-01T00:20:23.851Z,77.21
2023-01-01T00:22:55.871Z,77.21
2023-01-01T00:25:24.046Z,76.56
2023-01-01T00:27:51.963Z,76.18
2023-01-01T00:30:20.936Z,76.01
2023-01-01T00:32:54.449Z,75.63
2023-01-01T00:35:24.659Z,75.32
2023-01-01T00:37:52.237Z,75.35
2023-01-01T00:40:19.985Z,75.14
2023-01-01T00:42:47.531Z,74.62
2023-01-01T00:45:21.026Z,74.55
2023-01-01T00:47:51.128Z,74.25
2023-01-01T00:50:18.724Z,74.17
2023-01-01T00:52:47.037Z,74.04
2023-01-01T00:55:14.543Z,74.00
2023-01-01T00:57:42.408Z,74.07
2023-01-01T01:00:11.806Z,74.10
2023-01-01T01:02:39.668Z,74.05
2023-01-01T01:05:09.852Z,73.63
2023-01-01T01:07:38.633Z,72.99
2023-01-01T01:10:08.185Z,72.92
2023-01-01T01:12:36.135Z,72.82
2023-01-01T01:15:04.299Z,72.71
2023-01-01T01:17:31.956Z,72.58
2023-01-01T01:19:59.691Z,72.71
2023-01-01T01:22:29.364Z,71.98
2023-01-01T01:24:57.386Z,72.22
2023-01-01T01:27:25.282Z,71.81
2023-01-01T01:29:53.044Z,71.68
2023-01-01T01:32:20.969Z,71.89
2023-01-01T01:34:49.143Z,71.66
2023-01-01T01:37:17.103Z,71.48
2023-01-01T01:39:50.259Z,71.21
2023-01-01T01:42:21.179Z,70.41
2023-01-01T01:44:55.138Z,70.51
2023-01-01T01:47:27.804Z,70.17
2023-01-01T01:50:00.281Z,70.29
2023-01-01T01:52:29.825Z,70.28
2023-01-01T01:55:00.443Z,70.32
2023-01-01T01:57:28.402Z,70.09
2023-01-01T01:59:58.631Z,70.34
2023-01-01T02:02:33.671Z,70.47
2023-01-01T02:05:01.554Z,70.43
2023-01-01T02:07:32.670Z,70.37
2023-01-01T02:10:03.168Z,70.48
2023-01-01T02:12:30.767Z,70.40
2023-01-01T02:14:58.332Z,70.59
2023-01-01T02:17:38.544Z,70.92
2023-01-01T02:20:23.803Z,71.28
2023-01-01T02:23:06.706Z,71.38
2023-01-01T02:25:48.338Z,71.92
2023-01-01T02:28:25.070Z,71.80
2023-01-01T02:30:56.029Z,72.31
2023-01-01T02:33:26.807Z,72.53
2023-01-01T02:35:59.464Z,73.04
2023-01-01T02:38:31.500Z,73.08
2023-01-01T02:41:04.668Z,73.19
2023-01-01T02:43:32.242Z,73.25
2023-01-01T02:46:07.092Z,73.28
2023-01-01T02:48:41.147Z,73.42
2023-01-01T02:51:24.258Z,73.72
2023-01-01T02:54:00.566Z,73.36
2023-01-01T02:56:37.505Z,73.12
2023-01-01T02:59:36.554Z,72.96
2023-01-01T03:02:16.209Z,72.96
2023-01-01T03:04:57.409Z,72.61
2023-01-01T03:07:34.243Z,72.98
2023-01-01T03:10:05.946Z,72.80
2023-01-01T03:12:43.745Z,72.68
2023-01-01T03:15:20.423Z,72.75
2023-01-01T03:17:56.483Z,72.79
2023-01-01T03:20:26.855Z,72.72
2023-01-01T03:22:57.424Z,73.15
2023-01-01T03:25:29.044Z,73.66
2023-01-01T03:28:00.015Z,74.02
2023-01-01T03:30:30.374Z,74.05
2023-01-01T03:33:04.312Z,74.65
2023-01-01T03:35:37.910Z,75.11
2023-01-01T03:38:11.053Z,75.20
2023-01-01T03:40:40.352Z,75.25
2023-01-01T03:43:14.949Z,75.10
2023-01-01T03:45:47.593Z,75.31
2023-01-01T03:48:16.998Z,75.49
2023-01-01T03:50:57.999Z,75.74
2023-01-01T03:53:34.451Z,75.85
2023-01-01T03:56:11.858Z,76.14
2023-01-01T03:58:43.673Z,76.48
2023-01-01T04:01:16.544Z,76.85
2023-01-01T04:03:45.991Z,77.16
2023-01-01T04:06:13.632Z,77.55
2023-01-01T04:08:41.297Z,77.54
2023-01-01T04:11:39.752Z,77.49
2023-01-01T04:14:07.283Z,77.57
2023-01-01T04:16:34.941Z,77.63
2023-01-01T04:19:06.975Z,77.68
2023-01-01T04:21:34.804Z,77.53
2023-01-01T04:24:02.316Z,77.73
2023-01-01T04:26:29.834Z,77.58
2023-01-01T04:28:57.433Z,77.46
2023-01-01T04:31:24.975Z,77.65
2023-01-01T04:33:54.981Z,77.66
2023-01-01T04:36:24.026Z,78.17
2023-01-01T04:38:51.575Z,78.48
2023-01-01T04:41:19.168Z,78.79
2023-01-01T04:43:49.792Z,79.05
2023-01-01T04:46:18.067Z,79.35
2023-01-01T04:48:46.051Z,79.51
2023-01-01T04:51:15.084Z,79.77
2023-01-01T04:53:44.779Z,79.64
2023-01-01T04:56:14.375Z,79.35
2023-01-01T04:58:43.215Z,79.30
2023-01-01T05:01:16.676Z,79.41
2023-01-01T05:03:44.454Z,79.53
2023-01-01T05:06:13.851Z,79.30
2023-01-01T05:08:45.004Z,79.26
2023-01-01T05:11:16.035Z,78.87
2023-01-01T05:13:45.505Z,78.89
2023-01-01T05:16:15.133Z,78.85
2023-01-01T05:18:43.621Z,78.46
2023-01-01T05:21:14.679Z,79.10
2023-01-01T05:23:43.797Z,78.94
2023-01-01T05:26:12.840Z,79.02
2023-01-01T05:28:41.515Z,79.11
2023-01-01T05:31:10.693Z,78.91
2023-01-01T05:33:38.696Z,79.20
2023-01-01T05:36:09.092Z,79.05
2023-01-01T05:38:37.567Z,79.15
2023-01-01T05:41:08.829Z,78.78
2023-01-01T05:43:37.531Z,78.50
2023-01-01T05:46:07.028Z,78.53
2023-01-01T05:48:36.508Z,78.82
2023-01-01T05:51:05.053Z,78.82
2023-01-01T05:53:33.089Z,78.94
2023-01-01T05:56:01.049Z,78.76
2023-01-01T05:58:32.077Z,78.76
2023-01-01T06:01:06.741Z,78.89
2023-01-01T06:03:34.388Z,78.72
2023-01-01T06:06:04.962Z,79.00
2023-01-01T06:08:32.540Z,78.65
2023-01-01T06:11:01.666Z,78.60
2023-01-01T06:13:30.980Z,78.48
2023-01-01T06:16:00.093Z,78.76
2023-01-01T06:18:30.966Z,78.78
2023-01-01T06:21:05.505Z,78.77
2023-01-01T06:23:33.569Z,78.89
2023-01-01T06:26:06.594Z,79.35
2023-01-01T06:28:35.592Z,79.08
2023-01-01T06:31:04.113Z,79.20
2023-01-01T06:33:32.118Z,79.15
2023-01-01T06:36:00.538Z,79.28
2023-01-01T06:38:28.172Z,79.63
2023-01-01T06:40:59.990Z,79.80
2023-01-01T06:43:27.968Z,80.02
2023-01-01T06:46:04.913Z,80.17
2023-01-01T06:48:35.409Z,80.54
2023-01-01T06:51:07.251Z,80.66
2023-01-01T06:53:35.281Z,80.48
2023-01-01T06:56:03.333Z,80.47
2023-01-01T06:58:31.276Z,80.64
2023-01-01T07:01:08.541Z,80.64
2023-01-01T07:03:37.178Z,80.86
2023-01-01T07:06:05.387Z,81.07
2023-01-01T07:08:32.945Z,80.87
2023-01-01T07:11:00.596Z,81.19
2023-01-01T07:13:29.751Z,81.12
2023-01-01T07:15:57.458Z,81.20
2023-01-01T07:18:26.661Z,81.45
2023-01-01T07:20:56.579Z,81.36
2023-01-01T07:23:24.697Z,81.45
2023-01-01T07:25:53.719Z,81.49
2023-01-01T07:28:22.900Z,81.84
2023-01-01T07:30:50.589Z,82.02
2023-01-01T07:33:21.174Z,82.10
2023-01-01T07:35:50.062Z,82.25
2023-01-01T07:38:18.343Z,82.58
2023-01-01T07:40:45.876Z,82.82
2023-01-01T07:43:14.187Z,82.93
2023-01-01T07:45:42.208Z,82.99
2023-01-01T07:48:15.866Z,83.24
2023-01-01T07:50:44.389Z,83.44
2023-01-01T07:53:14.221Z,83.43
2023-01-01T07:55:41.777Z,83.42
2023-01-01T07:58:10.875Z,83.39
2023-01-01T08:00:38.417Z,83.34
2023-01-01T08:03:06.980Z,83.14
2023-01-01T08:05:35.884Z,83.29
2023-01-01T08:08:03.455Z,83.22
2023-01-01T08:10:32.485Z,83.50
2023-01-01T08:13:01.310Z,83.54
2023-01-01T08:15:28.880Z,83.39
2023-01-01T08:18:00.056Z,83.49
2023-01-01T08:20:28.529Z,83.42
2023-01-01T08:23:00.127Z,83.77
2023-01-01T08:25:31.948Z,83.49
2023-01-01T08:27:59.524Z,83.77
2023-01-01T08:30:27.196Z,84.03
2023-01-01T08:32:54.746Z,84.00
2023-01-01T08:35:22.309Z,84.20
2023-01-01T08:37:49.857Z,84.47
2023-01-01T08:40:17.397Z,84.71
2023-01-01T08:42:46.251Z,84.86
2023-01-01T08:45:13.768Z,84.79
2023-01-01T08:47:41.328Z,84.77
2023-01-01T08:50:09.970Z,84.84
2023-01-01T08:52:37.488Z,85.00
2023-01-01T08:55:05.593Z,84.93
2023-01-01T08:57:33.162Z,85.07
2023-01-01T09:00:01.999Z,84.93
2023-01-01T09:02:32.186Z,85.06
2023-01-01T09:04:59.817Z,85.19
2023-01-01T09:07:27.334Z,85.19
2023-01-01T09:09:54.846Z,85.29
2023-01-01T09:12:22.416Z,85.49
2023-01-01T09:14:50.076Z,85.34
2023-01-01T09:17:18.936Z,85.12
2023-01-01T09:19:46.564Z,85.08
2023-01-01T09:22:14.395Z,84.85
2023-01-01T09:24:41.881Z,84.90
2023-01-01T09:27:09.424Z,85.02
2023-01-01T09:29:36.923Z,84.99
2023-01-01T09:32:04.841Z,85.26
2023-01-01T09:34:33.758Z,85.49
2023-01-01T09:37:01.308Z,85.43
2023-01-01T09:39:30.258Z,85.32
2023-01-01T09:42:18.168Z,85.03
2023-01-01T09:44:59.063Z,85.22
2023-01-01T09:47:31.182Z,85.13
2023-01-01T09:50:06.415Z,85.30
2023-01-01T09:52:40.656Z,85.51
2023-01-01T09:55:19.357Z,85.65
2023-01-01T09:57:47.206Z,85.95
2023-01-01T10:00:16.908Z,86.18
2023-01-01T10:02:56.125Z,86.59
2023-01-01T10:05:35.391Z,86.49
2023-01-01T10:08:10.709Z,85.78
2023-01-01T10:10:41.636Z,84.58
2023-01-01T10:13:22.813Z,84.00
2023-01-01T10:15:57.021Z,84.05
2023-01-01T10:18:29.888Z,83.67
2023-01-01T10:21:06.198Z,83.07
2023-01-01T10:23:41.227Z,82.57
2023-01-01T10:26:13.370Z,82.43
2023-01-01T10:28:48.006Z,82.69
2023-01-01T10:31:18.363Z,82.51
2023-01-01T10:33:48.327Z,82.13
2023-01-01T10:36:20.432Z,81.60
2023-01-01T10:38:49.155Z,81.48
2023-01-01T10:41:19.789Z,81.71
2023-01-01T10:43:49.295Z,81.95
2023-01-01T10:46:26.062Z,81.95
2023-01-01T10:49:12.316Z,81.84
2023-01-01T10:51:45.579Z,82.20
2023-01-01T10:54:31.929Z,82.53
2023-01-01T10:56:59.889Z,82.51
2023-01-01T10:59:36.348Z,82.48
2023-01-01T11:02:19.751Z,81.94
2023-01-01T11:04:48.799Z,82.10
2023-01-01T11:07:28.646Z,81.64
2023-01-01T11:10:03.647Z,81.85
2023-01-01T11:13:04.115Z,81.29
2023-01-01T11:15:32.330Z,80.69
2023-01-01T11:18:05.475Z,80.59
2023-01-01T11:20:34.870Z,80.77
2023-01-01T11:23:19.258Z,80.79
2023-01-01T11:25:59.266Z,81.05
2023-01-01T11:28:27.151Z,80.95
2023-01-01T11:31:02.823Z,80.34
2023-01-01T11:33:34.668Z,80.80
2023-01-01T11:36:02.370Z,80.89
2023-01-01T11:38:31.399Z,80.70
2023-01-01T11:41:05.664Z,80.64
2023-01-01T11:43:40.482Z,80.67
2023-01-01T11:46:11.838Z,80.48
2023-01-01T11:48:44.410Z,80.87
2023-01-01T11:51:30.317Z,80.86
2023-01-01T11:54:13.009Z,80.85
2023-01-01T11:56:41.148Z,81.04
2023-01-01T11:59:15.883Z,81.10
2023-01-01T12:01:48.329Z,81.06
2023-01-01T12:04:20.925Z,81.23
2023-01-01T12:06:53.418Z,81.46
2023-01-01T12:09:29.461Z,81.55
2023-01-01T12:12:05.207Z,81.92
2023-01-01T12:14:40.957Z,81.67
2023-01-01T12:17:15.981Z,81.65
2023-01-01T12:19:56.704Z,81.69
2023-01-01T12:22:25.327Z,81.82
2023-01-01T12:24:55.269Z,82.04
2023-01-01T12:27:41.302Z,82.42
2023-01-01T12:30:17.341Z,82.30
2023-01-01T12:33:22.935Z,82.75
2023-01-01T12:36:19.549Z,82.90
2023-01-01T12:39:29.412Z,83.02
2023-01-01T12:42:05.539Z,83.24
2023-01-01T12:44:46.167Z,83.30
2023-01-01T12:47:31.890Z,83.55
2023-01-01T12:50:15.417Z,83.62
2023-01-01T12:52:54.802Z,83.72
2023-01-01T12:56:16.230Z,83.72
2023-01-01T12:58:55.253Z,83.87
2023-01-01T13:01:32.591Z,83.96
2023-01-01T13:04:04.214Z,83.96
2023-01-01T13:06:37.471Z,83.96
2023-01-01T13:09:08.833Z,83.47
2023-01-01T13:11:44.533Z,83.23
2023-01-01T13:14:14.310Z,83.45
2023-01-01T13:16:43.148Z,83.51
2023-01-01T13:19:26.802Z,83.58
2023-01-01T13:21:54.418Z,83.69
2023-01-01T13:24:24.110Z,83.86
2023-01-01T13:26:51.935Z,83.52
2023-01-01T13:29:47.181Z,83.69
2023-01-01T13:32:16.671Z,83.77
2023-01-01T13:35:05.634Z,84.03
2023-01-01T13:37:46.377Z,84.21
2023-01-01T13:40:34.076Z,84.50
2023-01-01T13:43:19.558Z,85.09
2023-01-01T13:49:06.632Z,85.57
2023-01-01T13:52:06.421Z,86.09
2023-01-01T13:55:12.172Z,86.46
2023-01-01T13:58:06.533Z,86.75
2023-01-01T14:00:49.586Z,86.79
2023-01-01T14:03:19.866Z,86.97
2023-01-01T14:05:52.274Z,86.82
2023-01-01T14:08:30.751Z,86.78
2023-01-01T14:11:00.635Z,86.61
2023-01-01T14:13:32.219Z,86.67
2023-01-01T14:16:02.810Z,87.02
2023-01-01T14:18:35.942Z,87.09
2023-01-01T14:21:04.019Z,87.46
2023-01-01T14:23:36.368Z,87.40
2023-01-01T14:26:07.630Z,87.68
2023-01-01T14:28:36.615Z,88.09
2023-01-01T14:31:11.065Z,88.29
2023-01-01T14:33:40.533Z,88.35
2023-01-01T14:36:17.687Z,88.44
2023-01-01T14:38:47.048Z,88.42
2023-01-01T14:41:19.999Z,88.34
2023-01-01T14:43:50.177Z,88.19
2023-01-01T14:46:22.827Z,88.32
2023-01-01T14:48:55.223Z,87.84
2023-01-01T14:51:25.248Z,88.66
2023-01-01T14:53:55.111Z,89.02
2023-01-01T14:56:26.159Z,89.46
2023-01-01T14:58:54.193Z,89.78
2023-01-01T15:01:27.056Z,90.33
2023-01-01T15:04:04.292Z,90.89
2023-01-01T15:06:32.797Z,91.46
2023-01-01T15:09:03.426Z,91.98
2023-01-01T15:11:31.042Z,92.24
2023-01-01T15:14:01.297Z,92.76
2023-01-01T15:16:36.148Z,93.11
2023-01-01T15:19:19.548Z,93.50
2023-01-01T15:21:47.411Z,93.58
2023-01-01T15:24:20.308Z,94.04
2023-01-01T15:26:51.750Z,94.12
2023-01-01T15:29:29.703Z,94.31
2023-01-01T15:31:59.657Z,94.63
2023-01-01T15:34:32.332Z,94.58
2023-01-01T15:37:08.770Z,94.54
2023-01-01T15:39:46.348Z,94.89
2023-01-01T15:42:24.783Z,95.09
2023-01-01T15:44:52.316Z,95.09
2023-01-01T15:47:26.710Z,95.45
2023-01-01T15:50:09.897Z,95.73
2023-01-01T15:52:38.991Z,95.70
2023-01-01T15:55:07.405Z,95.92
2023-01-01T15:57:34.965Z,95.97
2023-01-01T16:00:02.582Z,96.00
2023-01-01T16:02:43.564Z,96.26
2023-01-01T16:05:16.505Z,96.23
2023-01-01T16:07:44.864Z,96.23
2023-01-01T16:10:15.872Z,96.09
2023-01-01T16:12:43.436Z,96.30
2023-01-01T16:15:16.290Z,96.11
2023-01-01T16:17:48.824Z,96.51
2023-01-01T16:20:19.758Z,96.65
2023-01-01T16:22:47.700Z,96.91
2023-01-01T16:25:16.581Z,97.00
2023-01-01T16:27:44.266Z,96.79
2023-01-01T16:30:13.478Z,96.92
2023-01-01T16:32:41.399Z,97.16
2023-01-01T16:35:13.547Z,96.97
2023-01-01T16:37:42.548Z,97.01
2023-01-01T16:40:10.960Z,97.23
2023-01-01T16:42:39.930Z,97.26
2023-01-01T16:45:08.842Z,97.25
2023-01-01T16:47:36.429Z,97.22
2023-01-01T16:50:04.110Z,97.32
2023-01-01T16:52:33.823Z,97.26
2023-01-01T16:55:03.185Z,97.27
2023-01-01T16:57:32.449Z,97.38
2023-01-01T17:00:00.164Z,97.49
2023-01-01T17:02:29.244Z,97.61
2023-01-01T17:04:56.978Z,97.63
2023-01-01T17:07:24.599Z,97.60
2023-01-01T17:09:52.226Z,97.55
2023-01-01T17:12:21.146Z,97.66
2023-01-01T17:14:48.852Z,97.74
2023-01-01T17:17:16.482Z,97.51
2023-01-01T17:19:44.344Z,97.39
2023-01-01T17:22:11.877Z,96.95
2023-01-01T17:24:39.619Z,97.12
2023-01-01T17:27:07.348Z,97.24
2023-01-01T17:29:36.234Z,97.16
2023-01-01T17:32:03.769Z,97.22
2023-01-01T17:34:31.355Z,97.60
2023-01-01T17:36:58.867Z,97.74
2023-01-01T17:39:26.368Z,97.48
2023-01-01T17:41:54.298Z,97.46
2023-01-01T17:44:21.835Z,97.27
2023-01-01T17:46:50.684Z,97.04
2023-01-01T17:49:18.811Z,97.20
2023-01-01T17:51:46.419Z,97.24
2023-01-01T17:54:14.119Z,97.15
2023-01-01T17:56:42.040Z,97.48
2023-01-01T17:59:10.474Z,97.13
2023-01-01T18:01:38.112Z,97.29
2023-01-01T18:04:09.030Z,96.89
2023-01-01T18:06:41.891Z,97.23
2023-01-01T18:09:12.784Z,96.98
2023-01-01T18:11:40.621Z,97.28
2023-01-01T18:14:08.606Z,97.19
2023-01-01T18:16:38.328Z,97.55
2023-01-01T18:19:08.865Z,97.56
2023-01-01T18:21:36.533Z,98.03
2023-01-01T18:24:04.169Z,98.39
2023-01-01T18:26:32.079Z,98.46
2023-01-01T18:29:01.027Z,98.74
2023-01-01T18:31:30.653Z,98.96
2023-01-01T18:33:59.034Z,99.37
2023-01-01T18:36:30.445Z,99.56
2023-01-01T18:38:59.749Z,99.72
2023-01-01T18:41:40.358Z,99.72
2023-01-01T18:44:17.977Z,99.63
2023-01-01T18:46:45.795Z,99.59
2023-01-01T18:49:13.363Z,99.95
2023-01-01T18:51:42.197Z,99.90
2023-01-01T18:54:13.843Z,99.68
2023-01-01T18:56:41.458Z,99.99
2023-01-01T18:59:20.978Z,99.92
2023-01-01T19:01:49.377Z,99.92
2023-01-01T19:04:19.490Z,99.92
2023-01-01T19:06:48.455Z,99.66
2023-01-01T19:09:20.848Z,99.51
2023-01-01T19:11:48.714Z,99.31
2023-01-01T19:14:18.550Z,98.80
2023-01-01T19:16:47.404Z,98.80
2023-01-01T19:19:18.533Z,99.03
2023-01-01T19:21:51.857Z,98.76
2023-01-01T19:24:22.811Z,98.66
2023-01-01T19:26:56.720Z,98.83
2023-01-01T19:29:26.010Z,99.07
2023-01-01T19:31:55.134Z,98.70
2023-01-01T19:34:23.976Z,98.51
2023-01-01T19:36:53.315Z,98.73
2023-01-01T19:39:21.032Z,98.81
2023-01-01T19:41:48.543Z,98.58
2023-01-01T19:44:20.018Z,98.32
2023-01-01T19:46:49.079Z,98.08
2023-01-01T19:49:17.316Z,98.34
2023-01-01T19:51:44.853Z,98.23
2023-01-01T19:54:13.748Z,98.10
2023-01-01T19:56:41.496Z,97.92
2023-01-01T19:59:09.013Z,97.91
2023-01-01T20:01:37.110Z,97.41
2023-01-01T20:04:05.485Z,97.23
2023-01-01T20:06:36.170Z,97.24
2023-01-01T20:09:03.806Z,97.16
2023-01-01T20:11:32.847Z,96.82
2023-01-01T20:14:00.431Z,96.83
2023-01-01T20:16:27.972Z,97.21
2023-01-01T20:18:55.557Z,97.27
2023-01-01T20:21:55.247Z,97.51
2023-01-01T20:24:22.872Z,97.42
2023-01-01T20:26:51.857Z,97.39
2023-01-01T20:29:22.309Z,97.34
2023-01-01T20:31:51.720Z,96.90
2023-01-01T20:34:19.669Z,97.08
2023-01-01T20:37:15.145Z,97.06
2023-01-01T20:39:42.666Z,97.36
2023-01-01T20:42:11.502Z,97.47
2023-01-01T20:44:42.618Z,97.61
2023-01-01T20:47:10.343Z,97.66
2023-01-01T20:49:37.861Z,97.83
2023-01-01T20:52:05.905Z,97.88
2023-01-01T20:54:33.520Z,97.52
2023-01-01T20:57:01.103Z,97.59
2023-01-01T20:59:36.412Z,97.75
2023-01-01T21:02:05.469Z,97.36
2023-01-01T21:04:33.313Z,97.52
2023-01-01T21:07:00.817Z,97.53
2023-01-01T21:09:28.297Z,97.69
2023-01-01T21:11:55.807Z,97.83
2023-01-01T21:14:25.599Z,98.15
2023-01-01T21:16:54.683Z,98.28
2023-01-01T21:19:26.567Z,98.59
2023-01-01T21:21:56.672Z,98.75
2023-01-01T21:24:27.907Z,98.82
2023-01-01T21:27:01.134Z,99.11
2023-01-01T21:29:33.454Z,99.21
2023-01-01T21:32:15.028Z,99.66
2023-01-01T21:34:45.839Z,99.62
2023-01-01T21:37:40.189Z,100.00
2023-01-01T21:40:34.668Z,100.00
2023-01-01T21:43:24.172Z,100.00
2023-01-01T21:45:52.750Z,100.00
2023-01-01T21:48:28.390Z,100.00
2023-01-01T21:50:56.200Z,100.00
2023-01-01T21:53:27.881Z,100.00
2023-01-01T21:55:56.794Z,100.00
2023-01-01T21:58:44.060Z,100.00
2023-01-01T22:01:19.851Z,100.00
2023-01-01T22:03:51.940Z,100.00
2023-01-01T22:06:19.468Z,100.00
2023-01-01T22:08:47.429Z,100.00
2023-01-01T22:11:26.073Z,100.00
2023-01-01T22:13:54.310Z,100.00
2023-01-01T22:16:29.112Z,100.00
2023-01-01T22:18:58.639Z,100.00
2023-01-01T22:21:26.999Z,100.00
2023-01-01T22:23:58.286Z,100.00
2023-01-01T22:26:28.667Z,100.00
2023-01-01T22:29:00.382Z,100.00
2023-01-01T22:31:32.059Z,100.00
2023-01-01T22:34:04.470Z,100.00
2023-01-01T22:36:36.791Z,100.00
2023-01-01T22:39:12.991Z,100.00
2023-01-01T22:41:40.647Z,100.00
2023-01-01T22:44:08.301Z,100.00
2023-01-01T22:46:38.378Z,100.00
2023-01-01T22:49:15.820Z,100.00
2023-01-01T22:51:45.740Z,100.00
2023-01-01T22:54:13.286Z,100.00
2023-01-01T22:56:40.804Z,100.00
2023-01-01T22:59:08.436Z,100.00
2023-01-01T23:01:36.077Z,100.00
2023-01-01T23:04:03.849Z,100.00
2023-01-01T23:06:33.495Z,100.00
2023-01-01T23:09:01.203Z,100.00
2023-01-01T23:11:29.099Z,100.00
2023-01-01T23:14:14.159Z,100.00
2023-01-01T23:16:41.712Z,100.00
2023-01-01T23:19:09.276Z,100.00
2023-01-01T23:21:40.917Z,100.00
2023-01-01T23:24:11.299Z,100.00
2023-01-01T23:26:40.821Z,100.00
2023-01-01T23:29:10.260Z,100.00
2023-01-01T23:31:40.207Z,100.00
2023-01-01T23:34:08.383Z,100.00
2023-01-01T23:36:36.179Z,100.00
2023-01-01T23:39:05.117Z,100.00
2023-01-01T23:41:32.959Z,100.00
2023-01-01T23:44:00.490Z,100.00
2023-01-01T23:46:28.223Z,100.00
2023-01-01T23:48:56.333Z,100.00
2023-01-01T23:51:23.919Z,100.00
2023-01-01T23:53:51.506Z,100.00
2023-01-01T23:56:20.377Z,100.00
2023-01-01T23:58:48.075Z,100.00
